Aviation Digital Data Service (ADDS)

Output produced by METARs form (0254 UTC 01 March 2015)
found at http://aviationweather.gov/adds/metars/
 
KRIC 282347Z 0100/0124 06005KT P6SM FEW030 OVC120 
     FM010700 08007KT P6SM BKN050 OVC100 
     FM011300 06003KT 4SM -PL BR OVC030 
     FM011500 06004KT 2SM -FZRA BR OVC015 
     FM012000 33005KT 2SM -FZDZ BR OVC009